sensor_id;sensor_type;location;lat;lon;timestamp;pressure;altitude;pressure_sealevel;temperature;humidity
49393;BME280;35268;42.642;23.308;2022-10-16T00:01:41;94556.44;;;8.70;72.35
49393;BME280;35268;42.642;23.308;2022-10-16T00:04:07;94567.66;;;8.67;72.26
49393;BME280;35268;42.642;23.308;2022-10-16T00:06:33;94565.56;;;8.64;72.31
49393;BME280;35268;42.642;23.308;2022-10-16T00:08:59;94569.00;;;8.64;72.29
49393;BME280;35268;42.642;23.308;2022-10-16T00:11:28;94571.16;;;8.62;72.43
49393;BME280;35268;42.642;23.308;2022-10-16T00:13:57;94569.06;;;8.59;72.28
49393;BME280;35268;42.642;23.308;2022-10-16T00:16:23;94577.03;;;8.59;72.53
49393;BME280;35268;42.642;23.308;2022-10-16T00:18:48;94572.78;;;8.58;72.30
49393;BME280;35268;42.642;23.308;2022-10-16T00:21:17;94563.81;;;8.54;72.46
49393;BME280;35268;42.642;23.308;2022-10-16T00:23:43;94562.50;;;8.52;73.16
49393;BME280;35268;42.642;23.308;2022-10-16T00:26:11;94575.78;;;8.52;73.25
49393;BME280;35268;42.642;23.308;2022-10-16T00:28:37;94578.72;;;8.50;73.25
49393;BME280;35268;42.642;23.308;2022-10-16T00:31:05;94579.31;;;8.47;73.24
49393;BME280;35268;42.642;23.308;2022-10-16T00:33:31;94582.78;;;8.42;73.21
49393;BME280;35268;42.642;23.308;2022-10-16T00:36:01;94593.41;;;8.42;73.56
49393;BME280;35268;42.642;23.308;2022-10-16T00:38:27;94575.63;;;8.38;73.49
49393;BME280;35268;42.642;23.308;2022-10-16T00:40:52;94584.69;;;8.37;73.50
49393;BME280;35268;42.642;23.308;2022-10-16T00:43:40;94587.38;;;8.32;74.06
49393;BME280;35268;42.642;23.308;2022-10-16T00:46:39;94589.00;;;8.28;73.77
49393;BME280;35268;42.642;23.308;2022-10-16T00:49:12;94579.47;;;8.27;73.76
49393;BME280;35268;42.642;23.308;2022-10-16T00:51:45;94577.88;;;8.26;73.55
49393;BME280;35268;42.642;23.308;2022-10-16T00:54:13;94581.09;;;8.22;73.63
49393;BME280;35268;42.642;23.308;2022-10-16T00:56:39;94578.25;;;8.14;73.86
49393;BME280;35268;42.642;23.308;2022-10-16T00:59:10;94576.69;;;8.13;73.92
49393;BME280;35268;42.642;23.308;2022-10-16T01:01:39;94581.19;;;8.12;73.69
49393;BME280;35268;42.642;23.308;2022-10-16T01:04:04;94587.56;;;8.11;73.82
49393;BME280;35268;42.642;23.308;2022-10-16T01:09:31;94584.72;;;8.02;74.06
49393;BME280;35268;42.642;23.308;2022-10-16T01:14:43;94583.44;;;8.00;74.00
49393;BME280;35268;42.642;23.308;2022-10-16T01:17:20;94579.97;;;7.99;74.06
49393;BME280;35268;42.642;23.308;2022-10-16T01:20:03;94576.28;;;7.95;74.11
49393;BME280;35268;42.642;23.308;2022-10-16T01:22:46;94580.53;;;7.96;74.09
49393;BME280;35268;42.642;23.308;2022-10-16T01:25:25;94580.28;;;7.93;74.29
49393;BME280;35268;42.642;23.308;2022-10-16T01:27:57;94573.97;;;7.89;74.33
49393;BME280;35268;42.642;23.308;2022-10-16T01:30:26;94567.28;;;7.91;74.39
49393;BME280;35268;42.642;23.308;2022-10-16T01:33:02;94565.44;;;7.92;74.09
49393;BME280;35268;42.642;23.308;2022-10-16T01:35:44;94563.34;;;7.89;73.86
49393;BME280;35268;42.642;23.308;2022-10-16T01:38:30;94565.72;;;7.90;73.83
49393;BME280;35268;42.642;23.308;2022-10-16T01:41:10;94566.78;;;7.89;73.55
49393;BME280;35268;42.642;23.308;2022-10-16T01:43:40;94566.84;;;7.84;73.75
49393;BME280;35268;42.642;23.308;2022-10-16T01:46:08;94569.72;;;7.88;73.88
49393;BME280;35268;42.642;23.308;2022-10-16T01:48:35;94576.09;;;7.87;73.66
49393;BME280;35268;42.642;23.308;2022-10-16T01:51:06;94572.16;;;7.84;73.73
49393;BME280;35268;42.642;23.308;2022-10-16T01:53:33;94582.50;;;7.80;73.79
49393;BME280;35268;42.642;23.308;2022-10-16T01:56:00;94590.22;;;7.82;74.02
49393;BME280;35268;42.642;23.308;2022-10-16T01:58:27;94577.72;;;7.82;73.95
49393;BME280;35268;42.642;23.308;2022-10-16T02:00:56;94578.25;;;7.79;74.09
49393;BME280;35268;42.642;23.308;2022-10-16T02:03:21;94587.03;;;7.80;74.08
49393;BME280;35268;42.642;23.308;2022-10-16T02:05:52;94593.66;;;7.77;74.37
49393;BME280;35268;42.642;23.308;2022-10-16T02:08:19;94586.00;;;7.76;74.42
49393;BME280;35268;42.642;23.308;2022-10-16T02:10:45;94588.94;;;7.74;74.68
49393;BME280;35268;42.642;23.308;2022-10-16T02:13:18;94595.28;;;7.73;74.73
49393;BME280;35268;42.642;23.308;2022-10-16T02:15:45;94597.41;;;7.76;74.79
49393;BME280;35268;42.642;23.308;2022-10-16T02:18:11;94596.63;;;7.76;74.54
49393;BME280;35268;42.642;23.308;2022-10-16T02:20:57;94613.88;;;7.73;74.50
49393;BME280;35268;42.642;23.308;2022-10-16T02:23:34;94612.84;;;7.69;74.63
49393;BME280;35268;42.642;23.308;2022-10-16T02:26:03;94617.34;;;7.69;75.01
49393;BME280;35268;42.642;23.308;2022-10-16T02:28:53;94614.19;;;7.67;75.77
49393;BME280;35268;42.642;23.308;2022-10-16T02:31:26;94624.00;;;7.66;76.15
49393;BME280;35268;42.642;23.308;2022-10-16T02:33:54;94623.22;;;7.66;76.29
49393;BME280;35268;42.642;23.308;2022-10-16T02:36:23;94613.16;;;7.62;75.98
49393;BME280;35268;42.642;23.308;2022-10-16T02:38:49;94615.53;;;7.64;75.78
49393;BME280;35268;42.642;23.308;2022-10-16T02:41:14;94607.31;;;7.66;75.27
49393;BME280;35268;42.642;23.308;2022-10-16T02:43:40;94613.41;;;7.66;75.52
49393;BME280;35268;42.642;23.308;2022-10-16T02:46:05;94618.72;;;7.66;75.53
49393;BME280;35268;42.642;23.308;2022-10-16T02:48:31;94613.66;;;7.64;75.84
49393;BME280;35268;42.642;23.308;2022-10-16T02:50:56;94619.25;;;7.63;75.78
49393;BME280;35268;42.642;23.308;2022-10-16T02:53:22;94618.22;;;7.59;76.22
49393;BME280;35268;42.642;23.308;2022-10-16T02:55:48;94628.59;;;7.55;76.88
49393;BME280;35268;42.642;23.308;2022-10-16T02:58:13;94631.00;;;7.52;77.03
49393;BME280;35268;42.642;23.308;2022-10-16T03:00:39;94630.47;;;7.50;77.41
49393;BME280;35268;42.642;23.308;2022-10-16T03:03:04;94636.56;;;7.50;77.19
49393;BME280;35268;42.642;23.308;2022-10-16T03:05:29;94627.84;;;7.50;76.80
49393;BME280;35268;42.642;23.308;2022-10-16T03:07:55;94638.97;;;7.52;76.84
49393;BME280;35268;42.642;23.308;2022-10-16T03:10:21;94636.06;;;7.48;76.89
49393;BME280;35268;42.642;23.308;2022-10-16T03:12:46;94639.50;;;7.49;76.66
49393;BME280;35268;42.642;23.308;2022-10-16T03:15:11;94645.31;;;7.51;76.90
49393;BME280;35268;42.642;23.308;2022-10-16T03:17:37;94641.09;;;7.50;76.79
49393;BME280;35268;42.642;23.308;2022-10-16T03:20:03;94642.97;;;7.49;76.53
49393;BME280;35268;42.642;23.308;2022-10-16T03:22:28;94636.84;;;7.49;76.34
49393;BME280;35268;42.642;23.308;2022-10-16T03:24:54;94652.75;;;7.49;76.01
49393;BME280;35268;42.642;23.308;2022-10-16T03:27:19;94653.31;;;7.46;75.88
49393;BME280;35268;42.642;23.308;2022-10-16T03:29:45;94650.97;;;7.39;75.74
49393;BME280;35268;42.642;23.308;2022-10-16T03:32:10;94650.72;;;7.35;75.35
49393;BME280;35268;42.642;23.308;2022-10-16T03:34:36;94640.66;;;7.32;75.18
49393;BME280;35268;42.642;23.308;2022-10-16T03:37:01;94657.91;;;7.30;75.12
49393;BME280;35268;42.642;23.308;2022-10-16T03:39:26;94654.22;;;7.26;75.36
49393;BME280;35268;42.642;23.308;2022-10-16T03:41:52;94654.22;;;7.20;75.31
49393;BME280;35268;42.642;23.308;2022-10-16T03:44:17;94649.47;;;7.17;75.31
49393;BME280;35268;42.642;23.308;2022-10-16T03:46:43;94642.34;;;7.13;75.19
49393;BME280;35268;42.642;23.308;2022-10-16T03:49:08;94645.25;;;7.11;75.60
49393;BME280;35268;42.642;23.308;2022-10-16T03:51:34;94645.78;;;7.08;75.57
49393;BME280;35268;42.642;23.308;2022-10-16T03:53:59;94649.25;;;7.03;75.77
49393;BME280;35268;42.642;23.308;2022-10-16T03:56:25;94640.78;;;7.01;75.56
49393;BME280;35268;42.642;23.308;2022-10-16T03:58:50;94633.91;;;6.95;75.71
49393;BME280;35268;42.642;23.308;2022-10-16T04:01:16;94634.19;;;6.94;75.82
49393;BME280;35268;42.642;23.308;2022-10-16T04:03:41;94637.63;;;6.94;75.77
49393;BME280;35268;42.642;23.308;2022-10-16T04:06:06;94640.81;;;6.91;75.90
49393;BME280;35268;42.642;23.308;2022-10-16T04:08:32;94633.94;;;6.90;76.00
49393;BME280;35268;42.642;23.308;2022-10-16T04:11:00;94637.66;;;6.89;76.16
49393;BME280;35268;42.642;23.308;2022-10-16T04:13:26;94639.78;;;6.87;76.27
49393;BME280;35268;42.642;23.308;2022-10-16T04:15:52;94639.78;;;6.87;75.83
49393;BME280;35268;42.642;23.308;2022-10-16T04:18:17;94643.47;;;6.91;75.92
49393;BME280;35268;42.642;23.308;2022-10-16T04:20:42;94639.50;;;6.89;75.99
49393;BME280;35268;42.642;23.308;2022-10-16T04:23:08;94642.41;;;6.87;75.79
49393;BME280;35268;42.642;23.308;2022-10-16T04:25:33;94640.59;;;6.82;75.77
49393;BME280;35268;42.642;23.308;2022-10-16T04:27:59;94644.28;;;6.81;76.48
49393;BME280;35268;42.642;23.308;2022-10-16T04:30:24;94643.25;;;6.82;76.96
49393;BME280;35268;42.642;23.308;2022-10-16T04:32:51;94653.06;;;6.82;76.69
49393;BME280;35268;42.642;23.308;2022-10-16T04:35:17;94651.44;;;6.81;77.00
49393;BME280;35268;42.642;23.308;2022-10-16T04:37:43;94661.53;;;6.84;77.17
49393;BME280;35268;42.642;23.308;2022-10-16T04:40:08;94662.84;;;6.81;76.75
49393;BME280;35268;42.642;23.308;2022-10-16T04:42:34;94654.09;;;6.81;76.13
49393;BME280;35268;42.642;23.308;2022-10-16T04:44:59;94661.53;;;6.79;76.16
49393;BME280;35268;42.642;23.308;2022-10-16T04:47:25;94660.75;;;6.78;75.95
49393;BME280;35268;42.642;23.308;2022-10-16T04:49:50;94665.50;;;6.76;75.89
49393;BME280;35268;42.642;23.308;2022-10-16T04:52:16;94665.50;;;6.76;75.87
49393;BME280;35268;42.642;23.308;2022-10-16T04:54:42;94671.59;;;6.77;75.85
49393;BME280;35268;42.642;23.308;2022-10-16T04:57:10;94677.41;;;6.79;75.73
49393;BME280;35268;42.642;23.308;2022-10-16T04:59:35;94677.69;;;6.77;75.63
49393;BME280;35268;42.642;23.308;2022-10-16T05:02:01;94681.69;;;6.80;76.11
49393;BME280;35268;42.642;23.308;2022-10-16T05:04:26;94684.84;;;6.82;76.39
49393;BME280;35268;42.642;23.308;2022-10-16T05:06:52;94686.41;;;6.83;76.45
49393;BME280;35268;42.642;23.308;2022-10-16T05:09:17;94691.47;;;6.85;76.59
49393;BME280;35268;42.642;23.308;2022-10-16T05:11:43;94687.47;;;6.87;76.37
49393;BME280;35268;42.642;23.308;2022-10-16T05:14:08;94688.00;;;6.89;76.19
49393;BME280;35268;42.642;23.308;2022-10-16T05:16:34;94694.34;;;6.93;76.11
49393;BME280;35268;42.642;23.308;2022-10-16T05:18:59;94695.94;;;6.94;76.69
49393;BME280;35268;42.642;23.308;2022-10-16T05:21:25;94692.75;;;6.97;76.50
49393;BME280;35268;42.642;23.308;2022-10-16T05:23:50;94698.03;;;7.02;76.96
49393;BME280;35268;42.642;23.308;2022-10-16T05:26:16;94698.81;;;7.08;76.98
49393;BME280;35268;42.642;23.308;2022-10-16T05:28:41;94693.22;;;7.15;76.86
49393;BME280;35268;42.642;23.308;2022-10-16T05:31:07;94695.31;;;7.23;76.76
49393;BME280;35268;42.642;23.308;2022-10-16T05:33:33;94696.63;;;7.26;76.50
49393;BME280;35268;42.642;23.308;2022-10-16T05:36:04;94699.81;;;7.33;76.46
49393;BME280;35268;42.642;23.308;2022-10-16T05:38:29;94696.31;;;7.37;76.43
49393;BME280;35268;42.642;23.308;2022-10-16T05:40:55;94702.41;;;7.43;76.71
49393;BME280;35268;42.642;23.308;2022-10-16T05:43:21;94704.50;;;7.46;76.75
49393;BME280;35268;42.642;23.308;2022-10-16T05:46:01;94703.94;;;7.54;76.76
49393;BME280;35268;42.642;23.308;2022-10-16T05:48:27;94709.22;;;7.59;76.75
49393;BME280;35268;42.642;23.308;2022-10-16T05:51:01;94712.09;;;7.63;77.10
49393;BME280;35268;42.642;23.308;2022-10-16T05:53:28;94718.44;;;7.67;76.92
49393;BME280;35268;42.642;23.308;2022-10-16T05:55:55;94712.63;;;7.70;76.95
49393;BME280;35268;42.642;23.308;2022-10-16T05:58:21;94713.72;;;7.64;77.09
49393;BME280;35268;42.642;23.308;2022-10-16T06:00:58;94720.00;;;7.73;76.94
49393;BME280;35268;42.642;23.308;2022-10-16T06:03:24;94725.03;;;7.80;76.84
49393;BME280;35268;42.642;23.308;2022-10-16T06:05:50;94731.66;;;7.82;76.82
49393;BME280;35268;42.642;23.308;2022-10-16T06:08:16;94736.94;;;7.88;76.77
49393;BME280;35268;42.642;23.308;2022-10-16T06:10:41;94740.94;;;7.85;76.59
49393;BME280;35268;42.642;23.308;2022-10-16T06:13:07;94743.84;;;7.89;76.88
49393;BME280;35268;42.642;23.308;2022-10-16T06:15:32;94741.69;;;7.91;76.79
49393;BME280;35268;42.642;23.308;2022-10-16T06:17:58;94744.56;;;7.99;76.68
49393;BME280;35268;42.642;23.308;2022-10-16T06:20:23;94745.84;;;8.07;76.28
49393;BME280;35268;42.642;23.308;2022-10-16T06:22:49;94748.75;;;8.11;76.28
49393;BME280;35268;42.642;23.308;2022-10-16T06:25:14;94749.75;;;8.20;76.08
49393;BME280;35268;42.642;23.308;2022-10-16T06:27:40;94754.19;;;8.30;76.00
49393;BME280;35268;42.642;23.308;2022-10-16T06:30:06;94756.25;;;8.38;75.54
49393;BME280;35268;42.642;23.308;2022-10-16T06:32:32;94758.13;;;8.42;75.58
49393;BME280;35268;42.642;23.308;2022-10-16T06:34:57;94753.56;;;8.48;75.01
49393;BME280;35268;42.642;23.308;2022-10-16T06:37:23;94763.91;;;8.55;74.80
49393;BME280;35268;42.642;23.308;2022-10-16T06:39:50;94763.56;;;8.61;74.94
49393;BME280;35268;42.642;23.308;2022-10-16T06:42:17;94763.25;;;8.68;74.83
49393;BME280;35268;42.642;23.308;2022-10-16T06:44:43;94767.97;;;8.76;74.29
49393;BME280;35268;42.642;23.308;2022-10-16T06:47:08;94767.63;;;8.83;74.05
49393;BME280;35268;42.642;23.308;2022-10-16T06:49:33;94765.97;;;8.92;73.86
49393;BME280;35268;42.642;23.308;2022-10-16T06:51:59;94765.09;;;9.02;73.74
49393;BME280;35268;42.642;23.308;2022-10-16T06:54:24;94777.44;;;9.17;73.78
49393;BME280;35268;42.642;23.308;2022-10-16T06:56:51;94780.50;;;9.29;73.21
49393;BME280;35268;42.642;23.308;2022-10-16T06:59:16;94781.47;;;9.38;73.27
49393;BME280;35268;42.642;23.308;2022-10-16T07:01:42;94782.66;;;9.51;71.71
49393;BME280;35268;42.642;23.308;2022-10-16T07:04:07;94785.44;;;9.65;70.75
49393;BME280;35268;42.642;23.308;2022-10-16T07:06:33;94791.16;;;9.77;70.13
49393;BME280;35268;42.642;23.308;2022-10-16T07:09:01;94796.88;;;9.90;69.62
49393;BME280;35268;42.642;23.308;2022-10-16T07:11:27;94794.59;;;10.02;69.08
49393;BME280;35268;42.642;23.308;2022-10-16T07:13:53;94791.00;;;10.12;68.56
49393;BME280;35268;42.642;23.308;2022-10-16T07:16:20;94783.44;;;10.19;68.37
49393;BME280;35268;42.642;23.308;2022-10-16T07:18:46;94788.38;;;10.25;68.26
49393;BME280;35268;42.642;23.308;2022-10-16T07:21:16;94790.25;;;10.30;67.67
49393;BME280;35268;42.642;23.308;2022-10-16T07:23:42;94791.75;;;10.36;67.37
49393;BME280;35268;42.642;23.308;2022-10-16T07:26:09;94789.22;;;10.45;67.08
49393;BME280;35268;42.642;23.308;2022-10-16T07:28:35;94801.69;;;10.50;66.69
49393;BME280;35268;42.642;23.308;2022-10-16T07:31:06;94794.13;;;10.57;66.64
49393;BME280;35268;42.642;23.308;2022-10-16T07:33:32;94799.88;;;10.64;66.22
49393;BME280;35268;42.642;23.308;2022-10-16T07:35:58;94800.22;;;10.76;65.53
49393;BME280;35268;42.642;23.308;2022-10-16T07:38:24;94802.44;;;10.88;65.10
49393;BME280;35268;42.642;23.308;2022-10-16T07:40:57;94791.31;;;11.00;65.38
49393;BME280;35268;42.642;23.308;2022-10-16T07:43:23;94798.34;;;11.10;64.79
49393;BME280;35268;42.642;23.308;2022-10-16T07:45:49;94804.28;;;11.20;63.81
49393;BME280;35268;42.642;23.308;2022-10-16T07:48:16;94802.84;;;11.28;63.59
49393;BME280;35268;42.642;23.308;2022-10-16T07:50:42;94799.19;;;11.38;63.34
49393;BME280;35268;42.642;23.308;2022-10-16T07:53:07;94803.53;;;11.48;62.97
49393;BME280;35268;42.642;23.308;2022-10-16T07:55:33;94803.97;;;11.55;62.89
49393;BME280;35268;42.642;23.308;2022-10-16T07:57:58;94809.09;;;11.65;62.75
49393;BME280;35268;42.642;23.308;2022-10-16T08:00:24;94815.44;;;11.69;62.38
49393;BME280;35268;42.642;23.308;2022-10-16T08:02:49;94809.13;;;11.79;62.33
49393;BME280;35268;42.642;23.308;2022-10-16T08:05:15;94806.53;;;11.88;61.71
49393;BME280;35268;42.642;23.308;2022-10-16T08:07:40;94807.25;;;11.93;61.54
49393;BME280;35268;42.642;23.308;2022-10-16T08:10:06;94811.13;;;12.01;61.04
49393;BME280;35268;42.642;23.308;2022-10-16T08:12:31;94811.41;;;12.13;60.51
49393;BME280;35268;42.642;23.308;2022-10-16T08:14:57;94808.59;;;12.18;60.08
49393;BME280;35268;42.642;23.308;2022-10-16T08:17:22;94804.16;;;12.28;60.17
49393;BME280;35268;42.642;23.308;2022-10-16T08:19:48;94809.06;;;12.34;60.25
49393;BME280;35268;42.642;23.308;2022-10-16T08:22:14;94808.16;;;12.39;59.82
49393;BME280;35268;42.642;23.308;2022-10-16T08:24:39;94813.41;;;12.44;59.52
49393;BME280;35268;42.642;23.308;2022-10-16T08:27:06;94819.13;;;12.51;59.44
49393;BME280;35268;42.642;23.308;2022-10-16T08:29:32;94808.19;;;12.61;58.67
49393;BME280;35268;42.642;23.308;2022-10-16T08:31:58;94803.25;;;12.69;57.77
49393;BME280;35268;42.642;23.308;2022-10-16T08:34:23;94803.31;;;12.77;57.57
49393;BME280;35268;42.642;23.308;2022-10-16T08:36:48;94796.91;;;12.87;57.58
49393;BME280;35268;42.642;23.308;2022-10-16T08:39:15;94802.13;;;12.92;57.24
49393;BME280;35268;42.642;23.308;2022-10-16T08:47:19;94796.81;;;13.15;55.74
49393;BME280;35268;42.642;23.308;2022-10-16T08:49:57;94806.78;;;13.23;55.32
49393;BME280;35268;42.642;23.308;2022-10-16T08:52:25;94807.03;;;13.35;54.97
49393;BME280;35268;42.642;23.308;2022-10-16T08:54:55;94802.75;;;13.34;54.32
49393;BME280;35268;42.642;23.308;2022-10-16T08:57:22;94805.31;;;13.39;53.75
49393;BME280;35268;42.642;23.308;2022-10-16T08:59:48;94805.03;;;13.50;53.37
49393;BME280;35268;42.642;23.308;2022-10-16T09:07:38;94818.09;;;13.82;49.26
49393;BME280;35268;42.642;23.308;2022-10-16T09:10:14;94812.59;;;13.88;49.82
49393;BME280;35268;42.642;23.308;2022-10-16T09:13:03;94799.84;;;13.93;50.11
49393;BME280;35268;42.642;23.308;2022-10-16T09:15:47;94801.44;;;14.03;49.38
49393;BME280;35268;42.642;23.308;2022-10-16T09:23:27;94796.47;;;14.28;48.37
49393;BME280;35268;42.642;23.308;2022-10-16T09:25:54;94794.09;;;14.35;48.11
49393;BME280;35268;42.642;23.308;2022-10-16T09:28:20;94801.69;;;14.41;47.00
49393;BME280;35268;42.642;23.308;2022-10-16T09:30:47;94803.28;;;14.51;46.18
49393;BME280;35268;42.642;23.308;2022-10-16T09:33:17;94801.38;;;14.52;45.18
49393;BME280;35268;42.642;23.308;2022-10-16T09:35:46;94804.88;;;14.61;45.67
49393;BME280;35268;42.642;23.308;2022-10-16T09:38:30;94806.47;;;14.71;45.04
49393;BME280;35268;42.642;23.308;2022-10-16T09:40:56;94802.34;;;14.73;43.86
49393;BME280;35268;42.642;23.308;2022-10-16T09:43:46;94808.19;;;14.67;43.24
49393;BME280;35268;42.642;23.308;2022-10-16T09:46:29;94794.00;;;14.75;43.43
49393;BME280;35268;42.642;23.308;2022-10-16T09:49:20;94797.16;;;14.77;43.70
49393;BME280;35268;42.642;23.308;2022-10-16T09:51:46;94800.16;;;14.84;44.82
49393;BME280;35268;42.642;23.308;2022-10-16T09:54:15;94792.25;;;14.96;43.99
49393;BME280;35268;42.642;23.308;2022-10-16T09:56:41;94793.00;;;15.05;43.46
49393;BME280;35268;42.642;23.308;2022-10-16T09:59:17;94784.31;;;15.17;42.29
49393;BME280;35268;42.642;23.308;2022-10-16T10:01:48;94792.41;;;15.09;42.81
49393;BME280;35268;42.642;23.308;2022-10-16T10:04:16;94786.22;;;15.08;43.69
49393;BME280;35268;42.642;23.308;2022-10-16T10:07:00;94788.25;;;15.20;44.23
49393;BME280;35268;42.642;23.308;2022-10-16T10:09:38;94784.13;;;15.31;43.30
49393;BME280;35268;42.642;23.308;2022-10-16T10:12:06;94777.63;;;15.41;43.66
49393;BME280;35268;42.642;23.308;2022-10-16T10:14:49;94780.28;;;15.50;43.27
49393;BME280;35268;42.642;23.308;2022-10-16T10:17:17;94774.59;;;15.51;41.93
49393;BME280;35268;42.642;23.308;2022-10-16T10:19:57;94779.47;;;15.58;42.02
49393;BME280;35268;42.642;23.308;2022-10-16T10:22:38;94785.56;;;15.67;42.23
49393;BME280;35268;42.642;23.308;2022-10-16T10:39:06;94767.22;;;16.08;40.04
49393;BME280;35268;42.642;23.308;2022-10-16T10:50:02;94756.06;;;16.27;40.00
49393;BME280;35268;42.642;23.308;2022-10-16T11:01:08;94745.09;;;16.74;38.68
49393;BME280;35268;42.642;23.308;2022-10-16T11:03:53;94741.81;;;16.68;38.23
49393;BME280;35268;42.642;23.308;2022-10-16T11:06:24;94738.38;;;16.80;37.55
49393;BME280;35268;42.642;23.308;2022-10-16T11:09:28;94731.84;;;16.90;37.21
49393;BME280;35268;42.642;23.308;2022-10-16T11:12:01;94738.38;;;17.01;37.44
49393;BME280;35268;42.642;23.308;2022-10-16T11:14:35;94733.09;;;17.04;37.04
49393;BME280;35268;42.642;23.308;2022-10-16T11:17:10;94732.22;;;17.13;37.45
49393;BME280;35268;42.642;23.308;2022-10-16T11:22:18;94730.91;;;17.31;34.75
49393;BME280;35268;42.642;23.308;2022-10-16T11:30:24;94717.03;;;17.66;33.14
49393;BME280;35268;42.642;23.308;2022-10-16T11:35:42;94723.00;;;17.84;32.99
49393;BME280;35268;42.642;23.308;2022-10-16T11:38:27;94719.53;;;17.96;31.72
49393;BME280;35268;42.642;23.308;2022-10-16T11:40:58;94724.69;;;18.01;31.76
49393;BME280;35268;42.642;23.308;2022-10-16T11:43:31;94721.97;;;18.13;32.21
49393;BME280;35268;42.642;23.308;2022-10-16T11:46:03;94725.34;;;18.22;31.19
49393;BME280;35268;42.642;23.308;2022-10-16T11:48:51;94730.47;;;18.28;31.38
49393;BME280;35268;42.642;23.308;2022-10-16T11:51:33;94728.69;;;18.19;30.33
49393;BME280;35268;42.642;23.308;2022-10-16T11:54:10;94727.34;;;18.38;31.50
49393;BME280;35268;42.642;23.308;2022-10-16T11:56:44;94725.50;;;18.54;31.07
49393;BME280;35268;42.642;23.308;2022-10-16T12:01:47;94726.16;;;18.51;30.30
49393;BME280;35268;42.642;23.308;2022-10-16T12:04:23;94715.75;;;18.65;29.51
49393;BME280;35268;42.642;23.308;2022-10-16T12:07:01;94718.22;;;18.71;29.28
49393;BME280;35268;42.642;23.308;2022-10-16T12:09:32;94707.63;;;18.78;29.88
49393;BME280;35268;42.642;23.308;2022-10-16T12:12:00;94719.81;;;19.00;30.68
49393;BME280;35268;42.642;23.308;2022-10-16T12:17:04;94726.22;;;19.39;29.59
49393;BME280;35268;42.642;23.308;2022-10-16T12:22:56;94724.16;;;19.64;30.88
49393;BME280;35268;42.642;23.308;2022-10-16T12:25:27;94719.97;;;19.67;29.17
49393;BME280;35268;42.642;23.308;2022-10-16T12:30:42;94721.91;;;19.82;29.17
49393;BME280;35268;42.642;23.308;2022-10-16T12:33:30;94718.06;;;19.83;28.14
49393;BME280;35268;42.642;23.308;2022-10-16T12:35:58;94728.63;;;19.73;28.04
49393;BME280;35268;42.642;23.308;2022-10-16T12:38:28;94729.84;;;19.91;28.85
49393;BME280;35268;42.642;23.308;2022-10-16T12:41:04;94723.69;;;20.10;27.95
49393;BME280;35268;42.642;23.308;2022-10-16T12:43:40;94723.44;;;20.15;28.18
49393;BME280;35268;42.642;23.308;2022-10-16T12:48:38;94719.31;;;20.21;28.50
49393;BME280;35268;42.642;23.308;2022-10-16T12:54:43;94728.34;;;20.64;27.70
49393;BME280;35268;42.642;23.308;2022-10-16T13:11:03;94737.56;;;20.99;27.43
49393;BME280;35268;42.642;23.308;2022-10-16T13:13:43;94736.13;;;21.05;27.84
49393;BME280;35268;42.642;23.308;2022-10-16T13:19:01;94737.94;;;21.20;27.47
49393;BME280;35268;42.642;23.308;2022-10-16T13:27:18;94735.66;;;21.65;27.12
49393;BME280;35268;42.642;23.308;2022-10-16T13:29:52;94738.06;;;21.70;27.45
49393;BME280;35268;42.642;23.308;2022-10-16T13:34:46;94736.84;;;21.91;27.72
49393;BME280;35268;42.642;23.308;2022-10-16T13:37:22;94737.78;;;22.02;27.37
49393;BME280;35268;42.642;23.308;2022-10-16T13:39:48;94738.53;;;21.99;27.40
49393;BME280;35268;42.642;23.308;2022-10-16T13:42:27;94742.66;;;22.16;26.82
49393;BME280;35268;42.642;23.308;2022-10-16T13:44:54;94736.50;;;22.19;26.54
49393;BME280;35268;42.642;23.308;2022-10-16T13:47:25;94738.13;;;22.23;26.21
49393;BME280;35268;42.642;23.308;2022-10-16T13:50:01;94735.75;;;22.45;26.26
49393;BME280;35268;42.642;23.308;2022-10-16T13:52:27;94737.75;;;22.52;26.18
49393;BME280;35268;42.642;23.308;2022-10-16T13:54:52;94740.84;;;22.50;26.32
49393;BME280;35268;42.642;23.308;2022-10-16T13:57:18;94740.53;;;22.55;26.12
49393;BME280;35268;42.642;23.308;2022-10-16T13:59:46;94744.91;;;22.63;27.03
49393;BME280;35268;42.642;23.308;2022-10-16T14:02:22;94741.34;;;22.59;26.04
49393;BME280;35268;42.642;23.308;2022-10-16T14:04:50;94741.25;;;22.52;26.10
49393;BME280;35268;42.642;23.308;2022-10-16T14:07:24;94748.22;;;22.50;26.46
49393;BME280;35268;42.642;23.308;2022-10-16T14:09:51;94756.41;;;22.53;27.18
49393;BME280;35268;42.642;23.308;2022-10-16T14:12:17;94752.63;;;22.61;26.50
49393;BME280;35268;42.642;23.308;2022-10-16T14:14:45;94751.13;;;22.64;26.76
49393;BME280;35268;42.642;23.308;2022-10-16T14:17:32;94751.38;;;22.86;26.62
49393;BME280;35268;42.642;23.308;2022-10-16T14:20:00;94755.41;;;22.99;26.69
49393;BME280;35268;42.642;23.308;2022-10-16T14:23:00;94755.72;;;23.20;25.80
49393;BME280;35268;42.642;23.308;2022-10-16T14:25:30;94753.56;;;23.40;25.88
49393;BME280;35268;42.642;23.308;2022-10-16T14:28:02;94753.38;;;23.60;25.72
49393;BME280;35268;42.642;23.308;2022-10-16T14:30:29;94769.78;;;23.71;25.66
49393;BME280;35268;42.642;23.308;2022-10-16T14:33:00;94764.94;;;23.91;25.52
49393;BME280;35268;42.642;23.308;2022-10-16T14:35:34;94770.53;;;24.09;25.60
49393;BME280;35268;42.642;23.308;2022-10-16T14:38:01;94762.41;;;24.16;25.40
49393;BME280;35268;42.642;23.308;2022-10-16T14:40:32;94770.34;;;23.87;25.54
49393;BME280;35268;42.642;23.308;2022-10-16T14:42:59;94769.81;;;23.33;26.90
49393;BME280;35268;42.642;23.308;2022-10-16T14:45:28;94775.69;;;22.75;28.22
49393;BME280;35268;42.642;23.308;2022-10-16T14:47:57;94779.03;;;22.11;27.37
49393;BME280;35268;42.642;23.308;2022-10-16T14:50:23;94781.34;;;21.63;27.47
49393;BME280;35268;42.642;23.308;2022-10-16T14:52:49;94784.94;;;21.28;27.59